sensor_id;sensor_type;location;lat;lon;timestamp;P1;durP1;ratioP1;P2;durP2;ratioP2
76599;SDS011;65489;52.048;6.090;2023-04-25T00:02:08;2.90;;;0.70;;
76599;SDS011;65489;52.048;6.090;2023-04-25T00:04:34;1.55;;;0.55;;
76599;SDS011;65489;52.048;6.090;2023-04-25T00:06:59;1.48;;;0.65;;
76599;SDS011;65489;52.048;6.090;2023-04-25T00:09:28;2.28;;;0.77;;
76599;SDS011;65489;52.048;6.090;2023-04-25T00:11:54;1.25;;;0.57;;
76599;SDS011;65489;52.048;6.090;2023-04-25T00:14:20;1.20;;;0.55;;
76599;SDS011;65489;52.048;6.090;2023-04-25T00:16:45;2.80;;;0.73;;
76599;SDS011;65489;52.048;6.090;2023-04-25T00:19:11;2.13;;;0.68;;
76599;SDS011;65489;52.048;6.090;2023-04-25T00:21:37;1.15;;;0.55;;
76599;SDS011;65489;52.048;6.090;2023-04-25T00:24:05;1.30;;;0.60;;
76599;SDS011;65489;52.048;6.090;2023-04-25T00:26:33;2.28;;;0.77;;
76599;SDS011;65489;52.048;6.090;2023-04-25T00:29:00;2.17;;;0.70;;
76599;SDS011;65489;52.048;6.090;2023-04-25T00:31:25;1.98;;;0.63;;
76599;SDS011;65489;52.048;6.090;2023-04-25T00:33:51;1.20;;;0.60;;
76599;SDS011;65489;52.048;6.090;2023-04-25T00:36:16;1.60;;;0.60;;
76599;SDS011;65489;52.048;6.090;2023-04-25T00:38:42;1.23;;;0.60;;
76599;SDS011;65489;52.048;6.090;2023-04-25T00:41:07;1.88;;;0.73;;
76599;SDS011;65489;52.048;6.090;2023-04-25T00:43:33;2.35;;;0.60;;
76599;SDS011;65489;52.048;6.090;2023-04-25T00:45:59;1.35;;;0.63;;
76599;SDS011;65489;52.048;6.090;2023-04-25T00:48:25;1.23;;;0.52;;
76599;SDS011;65489;52.048;6.090;2023-04-25T00:50:57;2.65;;;0.60;;
76599;SDS011;65489;52.048;6.090;2023-04-25T00:53:24;3.17;;;0.80;;
76599;SDS011;65489;52.048;6.090;2023-04-25T00:55:51;1.45;;;0.65;;
76599;SDS011;65489;52.048;6.090;2023-04-25T00:58:17;2.17;;;0.60;;
76599;SDS011;65489;52.048;6.090;2023-04-25T01:00:43;2.78;;;0.80;;
76599;SDS011;65489;52.048;6.090;2023-04-25T01:03:10;1.67;;;0.55;;
76599;SDS011;65489;52.048;6.090;2023-04-25T01:05:35;1.13;;;0.55;;
76599;SDS011;65489;52.048;6.090;2023-04-25T01:08:01;1.70;;;0.50;;
76599;SDS011;65489;52.048;6.090;2023-04-25T01:10:26;1.13;;;0.60;;
76599;SDS011;65489;52.048;6.090;2023-04-25T01:12:52;1.63;;;0.60;;
76599;SDS011;65489;52.048;6.090;2023-04-25T01:15:17;1.13;;;0.50;;
76599;SDS011;65489;52.048;6.090;2023-04-25T01:17:43;1.17;;;0.63;;
76599;SDS011;65489;52.048;6.090;2023-04-25T01:20:09;1.15;;;0.60;;
76599;SDS011;65489;52.048;6.090;2023-04-25T01:22:36;1.08;;;0.60;;
76599;SDS011;65489;52.048;6.090;2023-04-25T01:25:01;1.10;;;0.60;;
76599;SDS011;65489;52.048;6.090;2023-04-25T01:27:28;1.48;;;0.80;;
76599;SDS011;65489;52.048;6.090;2023-04-25T01:29:55;1.20;;;0.60;;
76599;SDS011;65489;52.048;6.090;2023-04-25T01:32:22;2.13;;;0.70;;
76599;SDS011;65489;52.048;6.090;2023-04-25T01:34:48;2.35;;;1.08;;
76599;SDS011;65489;52.048;6.090;2023-04-25T01:37:13;1.98;;;0.52;;
76599;SDS011;65489;52.048;6.090;2023-04-25T01:39:40;1.92;;;0.70;;
76599;SDS011;65489;52.048;6.090;2023-04-25T01:42:05;2.38;;;0.60;;
76599;SDS011;65489;52.048;6.090;2023-04-25T01:44:31;1.67;;;0.60;;
76599;SDS011;65489;52.048;6.090;2023-04-25T01:46:57;2.05;;;0.60;;
76599;SDS011;65489;52.048;6.090;2023-04-25T01:49:22;3.15;;;0.93;;
76599;SDS011;65489;52.048;6.090;2023-04-25T01:51:48;2.40;;;0.80;;
76599;SDS011;65489;52.048;6.090;2023-04-25T01:54:14;1.08;;;0.50;;
76599;SDS011;65489;52.048;6.090;2023-04-25T01:56:39;1.88;;;0.77;;
76599;SDS011;65489;52.048;6.090;2023-04-25T01:59:07;3.75;;;0.80;;
76599;SDS011;65489;52.048;6.090;2023-04-25T02:01:39;1.35;;;0.70;;
76599;SDS011;65489;52.048;6.090;2023-04-25T02:04:19;2.45;;;0.70;;
76599;SDS011;65489;52.048;6.090;2023-04-25T02:06:45;1.95;;;0.75;;
76599;SDS011;65489;52.048;6.090;2023-04-25T02:09:11;2.83;;;0.80;;
76599;SDS011;65489;52.048;6.090;2023-04-25T02:11:41;1.50;;;0.70;;
76599;SDS011;65489;52.048;6.090;2023-04-25T02:14:31;1.67;;;0.57;;
76599;SDS011;65489;52.048;6.090;2023-04-25T02:17:15;1.65;;;0.60;;
76599;SDS011;65489;52.048;6.090;2023-04-25T02:19:41;1.50;;;0.60;;
76599;SDS011;65489;52.048;6.090;2023-04-25T02:22:06;1.33;;;0.60;;
76599;SDS011;65489;52.048;6.090;2023-04-25T02:24:32;2.30;;;0.70;;
76599;SDS011;65489;52.048;6.090;2023-04-25T02:26:59;2.97;;;0.70;;
76599;SDS011;65489;52.048;6.090;2023-04-25T02:29:24;2.17;;;0.70;;
76599;SDS011;65489;52.048;6.090;2023-04-25T02:31:50;1.70;;;0.60;;
76599;SDS011;65489;52.048;6.090;2023-04-25T02:34:16;3.13;;;0.60;;
76599;SDS011;65489;52.048;6.090;2023-04-25T02:36:41;2.30;;;0.50;;
76599;SDS011;65489;52.048;6.090;2023-04-25T02:39:07;2.58;;;0.60;;
76599;SDS011;65489;52.048;6.090;2023-04-25T02:41:33;1.63;;;0.70;;
76599;SDS011;65489;52.048;6.090;2023-04-25T02:43:58;2.55;;;1.00;;
76599;SDS011;65489;52.048;6.090;2023-04-25T02:46:24;2.20;;;0.70;;
76599;SDS011;65489;52.048;6.090;2023-04-25T02:48:49;2.45;;;0.68;;
76599;SDS011;65489;52.048;6.090;2023-04-25T02:51:15;1.98;;;0.70;;
76599;SDS011;65489;52.048;6.090;2023-04-25T02:53:41;1.85;;;0.60;;
76599;SDS011;65489;52.048;6.090;2023-04-25T02:56:07;2.35;;;0.80;;
76599;SDS011;65489;52.048;6.090;2023-04-25T02:58:32;1.70;;;0.65;;
76599;SDS011;65489;52.048;6.090;2023-04-25T03:00:58;1.63;;;0.77;;
76599;SDS011;65489;52.048;6.090;2023-04-25T03:03:23;1.77;;;0.73;;
76599;SDS011;65489;52.048;6.090;2023-04-25T03:05:50;1.70;;;0.75;;
76599;SDS011;65489;52.048;6.090;2023-04-25T03:08:20;1.33;;;0.55;;
76599;SDS011;65489;52.048;6.090;2023-04-25T03:10:46;1.77;;;0.70;;
76599;SDS011;65489;52.048;6.090;2023-04-25T03:13:14;1.40;;;0.80;;
76599;SDS011;65489;52.048;6.090;2023-04-25T03:15:41;2.03;;;0.80;;
76599;SDS011;65489;52.048;6.090;2023-04-25T03:18:07;2.45;;;0.68;;
76599;SDS011;65489;52.048;6.090;2023-04-25T03:20:32;2.35;;;0.98;;
76599;SDS011;65489;52.048;6.090;2023-04-25T03:22:58;3.05;;;0.63;;
76599;SDS011;65489;52.048;6.090;2023-04-25T03:25:23;2.38;;;0.68;;
76599;SDS011;65489;52.048;6.090;2023-04-25T03:27:49;2.67;;;0.80;;
76599;SDS011;65489;52.048;6.090;2023-04-25T03:30:14;2.25;;;0.70;;
76599;SDS011;65489;52.048;6.090;2023-04-25T03:32:42;3.63;;;0.82;;
76599;SDS011;65489;52.048;6.090;2023-04-25T03:35:08;1.23;;;0.63;;
76599;SDS011;65489;52.048;6.090;2023-04-25T03:37:34;2.53;;;0.75;;
76599;SDS011;65489;52.048;6.090;2023-04-25T03:40:00;2.05;;;0.70;;
76599;SDS011;65489;52.048;6.090;2023-04-25T03:42:37;2.05;;;0.75;;
76599;SDS011;65489;52.048;6.090;2023-04-25T03:45:04;0.95;;;0.70;;
76599;SDS011;65489;52.048;6.090;2023-04-25T03:47:29;1.92;;;0.70;;
76599;SDS011;65489;52.048;6.090;2023-04-25T03:49:56;2.53;;;0.80;;
76599;SDS011;65489;52.048;6.090;2023-04-25T03:52:22;1.35;;;0.70;;
76599;SDS011;65489;52.048;6.090;2023-04-25T03:54:48;2.38;;;0.73;;
76599;SDS011;65489;52.048;6.090;2023-04-25T03:57:17;2.20;;;0.70;;
76599;SDS011;65489;52.048;6.090;2023-04-25T03:59:43;2.22;;;0.80;;
76599;SDS011;65489;52.048;6.090;2023-04-25T04:02:11;2.90;;;0.90;;
76599;SDS011;65489;52.048;6.090;2023-04-25T04:04:37;1.30;;;0.47;;
76599;SDS011;65489;52.048;6.090;2023-04-25T04:07:03;2.70;;;0.60;;
76599;SDS011;65489;52.048;6.090;2023-04-25T04:09:33;5.20;;;1.00;;
76599;SDS011;65489;52.048;6.090;2023-04-25T04:12:02;2.40;;;0.80;;
76599;SDS011;65489;52.048;6.090;2023-04-25T04:14:30;1.50;;;0.70;;
76599;SDS011;65489;52.048;6.090;2023-04-25T04:16:55;1.35;;;0.55;;
76599;SDS011;65489;52.048;6.090;2023-04-25T04:19:21;2.03;;;0.70;;
76599;SDS011;65489;52.048;6.090;2023-04-25T04:21:55;1.63;;;0.70;;
76599;SDS011;65489;52.048;6.090;2023-04-25T04:24:20;2.35;;;0.60;;
76599;SDS011;65489;52.048;6.090;2023-04-25T04:27:00;2.35;;;0.70;;
76599;SDS011;65489;52.048;6.090;2023-04-25T04:29:34;1.95;;;0.70;;
76599;SDS011;65489;52.048;6.090;2023-04-25T04:32:07;2.63;;;0.60;;
76599;SDS011;65489;52.048;6.090;2023-04-25T04:34:34;1.42;;;0.55;;
76599;SDS011;65489;52.048;6.090;2023-04-25T04:37:00;1.70;;;0.80;;
76599;SDS011;65489;52.048;6.090;2023-04-25T04:39:26;2.90;;;0.70;;
76599;SDS011;65489;52.048;6.090;2023-04-25T04:42:00;1.58;;;0.63;;
76599;SDS011;65489;52.048;6.090;2023-04-25T04:44:49;1.75;;;0.77;;
76599;SDS011;65489;52.048;6.090;2023-04-25T04:47:35;2.25;;;0.60;;
76599;SDS011;65489;52.048;6.090;2023-04-25T04:50:12;2.63;;;0.77;;
76599;SDS011;65489;52.048;6.090;2023-04-25T04:52:59;1.58;;;0.70;;
76599;SDS011;65489;52.048;6.090;2023-04-25T04:55:39;1.58;;;0.60;;
76599;SDS011;65489;52.048;6.090;2023-04-25T04:58:21;1.70;;;0.82;;
76599;SDS011;65489;52.048;6.090;2023-04-25T05:00:53;3.05;;;0.57;;
76599;SDS011;65489;52.048;6.090;2023-04-25T05:03:32;2.25;;;0.70;;
76599;SDS011;65489;52.048;6.090;2023-04-25T05:06:14;1.50;;;0.70;;
76599;SDS011;65489;52.048;6.090;2023-04-25T05:08:50;0.95;;;0.52;;
76599;SDS011;65489;52.048;6.090;2023-04-25T05:11:30;1.73;;;0.60;;
76599;SDS011;65489;52.048;6.090;2023-04-25T05:13:55;2.03;;;0.70;;
76599;SDS011;65489;52.048;6.090;2023-04-25T05:16:39;2.60;;;0.70;;
76599;SDS011;65489;52.048;6.090;2023-04-25T05:19:31;1.67;;;0.60;;
76599;SDS011;65489;52.048;6.090;2023-04-25T05:25:14;2.05;;;0.80;;
76599;SDS011;65489;52.048;6.090;2023-04-25T05:28:06;2.17;;;0.52;;
76599;SDS011;65489;52.048;6.090;2023-04-25T05:31:08;0.95;;;0.55;;
76599;SDS011;65489;52.048;6.090;2023-04-25T05:33:46;1.90;;;0.70;;
76599;SDS011;65489;52.048;6.090;2023-04-25T05:36:12;2.25;;;0.68;;
76599;SDS011;65489;52.048;6.090;2023-04-25T05:38:37;1.70;;;0.70;;
76599;SDS011;65489;52.048;6.090;2023-04-25T05:41:29;1.20;;;0.70;;
76599;SDS011;65489;52.048;6.090;2023-04-25T05:44:01;2.55;;;0.63;;
76599;SDS011;65489;52.048;6.090;2023-04-25T05:46:44;1.73;;;0.77;;
76599;SDS011;65489;52.048;6.090;2023-04-25T05:49:26;2.35;;;0.70;;
76599;SDS011;65489;52.048;6.090;2023-04-25T05:52:01;1.35;;;0.60;;
76599;SDS011;65489;52.048;6.090;2023-04-25T05:54:40;1.02;;;0.50;;
76599;SDS011;65489;52.048;6.090;2023-04-25T05:57:06;1.60;;;0.50;;
76599;SDS011;65489;52.048;6.090;2023-04-25T05:59:32;1.25;;;0.57;;
76599;SDS011;65489;52.048;6.090;2023-04-25T06:01:57;2.78;;;0.70;;
76599;SDS011;65489;52.048;6.090;2023-04-25T06:04:23;2.42;;;0.77;;
76599;SDS011;65489;52.048;6.090;2023-04-25T06:06:49;2.33;;;0.60;;
76599;SDS011;65489;52.048;6.090;2023-04-25T06:09:14;2.30;;;0.50;;
76599;SDS011;65489;52.048;6.090;2023-04-25T06:11:40;2.58;;;0.75;;
76599;SDS011;65489;52.048;6.090;2023-04-25T06:14:05;2.35;;;0.80;;
76599;SDS011;65489;52.048;6.090;2023-04-25T06:16:33;2.47;;;0.77;;
76599;SDS011;65489;52.048;6.090;2023-04-25T06:18:59;1.40;;;0.50;;
76599;SDS011;65489;52.048;6.090;2023-04-25T06:21:24;1.67;;;0.63;;
76599;SDS011;65489;52.048;6.090;2023-04-25T06:23:51;1.27;;;0.50;;
76599;SDS011;65489;52.048;6.090;2023-04-25T06:26:22;1.60;;;0.52;;
76599;SDS011;65489;52.048;6.090;2023-04-25T06:28:48;1.05;;;0.60;;
76599;SDS011;65489;52.048;6.090;2023-04-25T06:31:14;1.40;;;0.43;;
76599;SDS011;65489;52.048;6.090;2023-04-25T06:33:41;0.90;;;0.43;;
76599;SDS011;65489;52.048;6.090;2023-04-25T06:36:07;1.45;;;0.60;;
76599;SDS011;65489;52.048;6.090;2023-04-25T06:38:33;2.95;;;0.60;;
76599;SDS011;65489;52.048;6.090;2023-04-25T06:41:00;1.75;;;0.50;;
76599;SDS011;65489;52.048;6.090;2023-04-25T06:43:29;1.83;;;0.50;;
76599;SDS011;65489;52.048;6.090;2023-04-25T06:46:23;0.85;;;0.50;;
76599;SDS011;65489;52.048;6.090;2023-04-25T06:48:48;0.77;;;0.52;;
76599;SDS011;65489;52.048;6.090;2023-04-25T06:51:16;1.67;;;0.65;;
76599;SDS011;65489;52.048;6.090;2023-04-25T06:53:45;1.13;;;0.45;;
76599;SDS011;65489;52.048;6.090;2023-04-25T06:56:21;1.85;;;0.55;;
76599;SDS011;65489;52.048;6.090;2023-04-25T06:58:55;1.60;;;0.60;;
76599;SDS011;65489;52.048;6.090;2023-04-25T07:01:31;3.42;;;0.70;;
76599;SDS011;65489;52.048;6.090;2023-04-25T07:03:59;2.53;;;0.70;;
76599;SDS011;65489;52.048;6.090;2023-04-25T07:06:25;3.92;;;0.95;;
76599;SDS011;65489;52.048;6.090;2023-04-25T07:08:54;8.43;;;1.50;;
76599;SDS011;65489;52.048;6.090;2023-04-25T07:11:20;14.18;;;2.17;;
76599;SDS011;65489;52.048;6.090;2023-04-25T07:13:46;9.50;;;1.95;;
76599;SDS011;65489;52.048;6.090;2023-04-25T07:16:11;7.88;;;2.40;;
76599;SDS011;65489;52.048;6.090;2023-04-25T07:18:37;9.85;;;2.33;;
76599;SDS011;65489;52.048;6.090;2023-04-25T07:21:03;8.45;;;2.10;;
76599;SDS011;65489;52.048;6.090;2023-04-25T07:23:30;13.35;;;2.20;;
76599;SDS011;65489;52.048;6.090;2023-04-25T07:25:58;10.50;;;2.60;;
76599;SDS011;65489;52.048;6.090;2023-04-25T07:28:25;11.30;;;2.45;;
76599;SDS011;65489;52.048;6.090;2023-04-25T07:30:51;9.43;;;2.40;;
76599;SDS011;65489;52.048;6.090;2023-04-25T07:33:16;11.15;;;2.63;;
76599;SDS011;65489;52.048;6.090;2023-04-25T07:35:42;11.85;;;2.70;;
76599;SDS011;65489;52.048;6.090;2023-04-25T07:38:08;9.95;;;2.50;;
76599;SDS011;65489;52.048;6.090;2023-04-25T07:40:35;12.23;;;2.83;;
76599;SDS011;65489;52.048;6.090;2023-04-25T07:43:05;12.63;;;3.30;;
76599;SDS011;65489;52.048;6.090;2023-04-25T07:45:43;9.67;;;2.77;;
76599;SDS011;65489;52.048;6.090;2023-04-25T07:48:10;13.07;;;2.63;;
76599;SDS011;65489;52.048;6.090;2023-04-25T07:50:37;9.25;;;2.58;;
76599;SDS011;65489;52.048;6.090;2023-04-25T07:53:03;13.05;;;2.47;;
76599;SDS011;65489;52.048;6.090;2023-04-25T07:55:39;7.57;;;2.60;;
76599;SDS011;65489;52.048;6.090;2023-04-25T07:58:13;7.68;;;2.47;;
76599;SDS011;65489;52.048;6.090;2023-04-25T08:00:42;12.75;;;2.45;;
76599;SDS011;65489;52.048;6.090;2023-04-25T08:03:22;11.45;;;2.20;;
76599;SDS011;65489;52.048;6.090;2023-04-25T08:05:49;10.15;;;2.42;;
76599;SDS011;65489;52.048;6.090;2023-04-25T08:08:14;8.57;;;2.50;;
76599;SDS011;65489;52.048;6.090;2023-04-25T08:10:40;5.68;;;2.20;;
76599;SDS011;65489;52.048;6.090;2023-04-25T08:13:07;9.70;;;2.50;;
76599;SDS011;65489;52.048;6.090;2023-04-25T08:15:34;6.55;;;2.13;;
76599;SDS011;65489;52.048;6.090;2023-04-25T08:18:00;8.02;;;2.10;;
76599;SDS011;65489;52.048;6.090;2023-04-25T08:20:25;6.00;;;2.30;;
76599;SDS011;65489;52.048;6.090;2023-04-25T08:22:54;8.98;;;2.60;;
76599;SDS011;65489;52.048;6.090;2023-04-25T08:25:32;7.57;;;2.28;;
76599;SDS011;65489;52.048;6.090;2023-04-25T08:27:57;8.20;;;2.13;;
76599;SDS011;65489;52.048;6.090;2023-04-25T08:30:24;6.97;;;2.33;;
76599;SDS011;65489;52.048;6.090;2023-04-25T08:32:50;6.40;;;1.90;;
76599;SDS011;65489;52.048;6.090;2023-04-25T08:35:29;10.90;;;2.03;;
76599;SDS011;65489;52.048;6.090;2023-04-25T08:37:54;7.57;;;2.20;;
76599;SDS011;65489;52.048;6.090;2023-04-25T08:40:20;7.03;;;1.90;;
76599;SDS011;65489;52.048;6.090;2023-04-25T08:42:59;6.70;;;1.90;;
76599;SDS011;65489;52.048;6.090;2023-04-25T08:45:26;4.65;;;1.83;;
76599;SDS011;65489;52.048;6.090;2023-04-25T08:47:53;4.97;;;1.75;;
76599;SDS011;65489;52.048;6.090;2023-04-25T08:50:19;5.22;;;1.85;;
76599;SDS011;65489;52.048;6.090;2023-04-25T08:52:50;7.05;;;1.73;;
76599;SDS011;65489;52.048;6.090;2023-04-25T08:55:17;8.98;;;2.10;;
76599;SDS011;65489;52.048;6.090;2023-04-25T08:57:44;6.50;;;1.85;;
76599;SDS011;65489;52.048;6.090;2023-04-25T09:00:10;5.63;;;1.92;;
76599;SDS011;65489;52.048;6.090;2023-04-25T09:02:39;7.70;;;1.80;;
76599;SDS011;65489;52.048;6.090;2023-04-25T09:05:06;5.10;;;1.70;;
76599;SDS011;65489;52.048;6.090;2023-04-25T09:07:35;6.30;;;1.67;;
76599;SDS011;65489;52.048;6.090;2023-04-25T09:10:00;6.20;;;1.70;;
76599;SDS011;65489;52.048;6.090;2023-04-25T09:12:29;8.77;;;1.95;;
76599;SDS011;65489;52.048;6.090;2023-04-25T09:15:11;4.40;;;1.50;;
76599;SDS011;65489;52.048;6.090;2023-04-25T09:17:47;5.97;;;1.52;;
76599;SDS011;65489;52.048;6.090;2023-04-25T09:20:21;4.18;;;1.60;;
76599;SDS011;65489;52.048;6.090;2023-04-25T09:22:46;6.13;;;1.63;;
76599;SDS011;65489;52.048;6.090;2023-04-25T09:25:13;6.90;;;1.40;;
76599;SDS011;65489;52.048;6.090;2023-04-25T09:27:49;6.05;;;1.65;;
76599;SDS011;65489;52.048;6.090;2023-04-25T09:30:30;6.13;;;1.33;;
76599;SDS011;65489;52.048;6.090;2023-04-25T09:33:05;4.60;;;1.40;;
76599;SDS011;65489;52.048;6.090;2023-04-25T09:35:35;6.55;;;1.65;;
76599;SDS011;65489;52.048;6.090;2023-04-25T09:38:14;4.88;;;1.38;;
76599;SDS011;65489;52.048;6.090;2023-04-25T09:40:48;4.32;;;1.30;;
76599;SDS011;65489;52.048;6.090;2023-04-25T09:43:26;3.78;;;1.25;;
76599;SDS011;65489;52.048;6.090;2023-04-25T09:45:54;3.05;;;1.30;;
76599;SDS011;65489;52.048;6.090;2023-04-25T09:48:25;3.92;;;1.02;;
76599;SDS011;65489;52.048;6.090;2023-04-25T09:53:40;5.63;;;1.30;;
76599;SDS011;65489;52.048;6.090;2023-04-25T09:56:35;4.43;;;1.27;;
76599;SDS011;65489;52.048;6.090;2023-04-25T09:59:03;3.65;;;1.30;;
76599;SDS011;65489;52.048;6.090;2023-04-25T10:01:32;4.78;;;1.20;;
76599;SDS011;65489;52.048;6.090;2023-04-25T10:04:07;4.50;;;1.27;;
76599;SDS011;65489;52.048;6.090;2023-04-25T10:07:05;3.53;;;1.20;;
76599;SDS011;65489;52.048;6.090;2023-04-25T10:09:32;4.43;;;1.10;;
76599;SDS011;65489;52.048;6.090;2023-04-25T10:12:02;3.03;;;1.45;;
76599;SDS011;65489;52.048;6.090;2023-04-25T10:14:34;2.75;;;1.08;;
76599;SDS011;65489;52.048;6.090;2023-04-25T10:17:03;3.03;;;1.02;;
76599;SDS011;65489;52.048;6.090;2023-04-25T10:19:30;4.82;;;1.30;;
76599;SDS011;65489;52.048;6.090;2023-04-25T10:24:38;4.53;;;1.20;;
76599;SDS011;65489;52.048;6.090;2023-04-25T10:27:05;2.33;;;0.90;;
76599;SDS011;65489;52.048;6.090;2023-04-25T10:29:31;4.35;;;1.05;;
76599;SDS011;65489;52.048;6.090;2023-04-25T10:32:00;2.05;;;1.00;;
76599;SDS011;65489;52.048;6.090;2023-04-25T10:34:43;3.95;;;1.10;;
76599;SDS011;65489;52.048;6.090;2023-04-25T10:37:12;4.70;;;1.23;;
76599;SDS011;65489;52.048;6.090;2023-04-25T10:39:38;3.45;;;1.05;;
76599;SDS011;65489;52.048;6.090;2023-04-25T10:42:05;1.98;;;0.98;;
76599;SDS011;65489;52.048;6.090;2023-04-25T10:44:33;2.33;;;1.00;;
76599;SDS011;65489;52.048;6.090;2023-04-25T10:46:59;3.08;;;1.13;;
76599;SDS011;65489;52.048;6.090;2023-04-25T10:49:30;3.22;;;0.98;;
76599;SDS011;65489;52.048;6.090;2023-04-25T10:54:48;2.58;;;1.13;;
76599;SDS011;65489;52.048;6.090;2023-04-25T10:57:28;1.77;;;0.90;;
76599;SDS011;65489;52.048;6.090;2023-04-25T11:00:08;3.03;;;0.82;;
76599;SDS011;65489;52.048;6.090;2023-04-25T11:02:37;2.63;;;0.77;;
76599;SDS011;65489;52.048;6.090;2023-04-25T11:10:18;4.03;;;1.13;;
76599;SDS011;65489;52.048;6.090;2023-04-25T11:12:44;2.90;;;0.80;;
76599;SDS011;65489;52.048;6.090;2023-04-25T11:15:18;2.88;;;1.00;;
76599;SDS011;65489;52.048;6.090;2023-04-25T11:17:46;3.30;;;0.80;;
76599;SDS011;65489;52.048;6.090;2023-04-25T11:20:12;2.00;;;0.80;;
76599;SDS011;65489;52.048;6.090;2023-04-25T11:22:41;1.92;;;0.60;;
76599;SDS011;65489;52.048;6.090;2023-04-25T11:25:07;1.98;;;0.80;;
76599;SDS011;65489;52.048;6.090;2023-04-25T11:27:34;3.20;;;1.05;;
76599;SDS011;65489;52.048;6.090;2023-04-25T11:30:13;2.40;;;1.00;;
76599;SDS011;65489;52.048;6.090;2023-04-25T11:32:41;1.48;;;0.68;;
76599;SDS011;65489;52.048;6.090;2023-04-25T11:35:09;1.27;;;0.70;;
76599;SDS011;65489;52.048;6.090;2023-04-25T11:37:35;3.08;;;0.77;;
76599;SDS011;65489;52.048;6.090;2023-04-25T11:40:02;1.83;;;0.88;;
76599;SDS011;65489;52.048;6.090;2023-04-25T11:42:28;2.28;;;0.90;;
76599;SDS011;65489;52.048;6.090;2023-04-25T11:44:53;2.45;;;0.70;;
76599;SDS011;65489;52.048;6.090;2023-04-25T11:47:19;2.47;;;0.80;;
76599;SDS011;65489;52.048;6.090;2023-04-25T11:49:45;2.47;;;0.70;;
76599;SDS011;65489;52.048;6.090;2023-04-25T11:52:10;3.17;;;1.10;;
76599;SDS011;65489;52.048;6.090;2023-04-25T11:54:36;4.32;;;0.77;;
76599;SDS011;65489;52.048;6.090;2023-04-25T11:57:02;1.85;;;0.68;;
76599;SDS011;65489;52.048;6.090;2023-04-25T11:59:28;1.20;;;0.60;;
76599;SDS011;65489;52.048;6.090;2023-04-25T12:01:54;1.95;;;0.73;;
76599;SDS011;65489;52.048;6.090;2023-04-25T12:04:20;1.92;;;0.70;;
76599;SDS011;65489;52.048;6.090;2023-04-25T12:06:48;1.65;;;0.60;;
76599;SDS011;65489;52.048;6.090;2023-04-25T12:09:17;1.60;;;0.75;;
76599;SDS011;65489;52.048;6.090;2023-04-25T12:11:47;1.70;;;0.70;;
76599;SDS011;65489;52.048;6.090;2023-04-25T12:14:20;1.55;;;0.60;;
76599;SDS011;65489;52.048;6.090;2023-04-25T12:16:49;2.17;;;0.68;;
76599;SDS011;65489;52.048;6.090;2023-04-25T12:19:16;1.70;;;0.60;;
76599;SDS011;65489;52.048;6.090;2023-04-25T12:21:43;1.92;;;0.52;;
76599;SDS011;65489;52.048;6.090;2023-04-25T12:24:09;1.85;;;0.57;;
76599;SDS011;65489;52.048;6.090;2023-04-25T12:29:25;2.25;;;0.60;;
76599;SDS011;65489;52.048;6.090;2023-04-25T12:31:52;4.18;;;0.50;;
76599;SDS011;65489;52.048;6.090;2023-04-25T12:34:20;1.45;;;0.60;;
76599;SDS011;65489;52.048;6.090;2023-04-25T12:36:46;1.48;;;0.65;;
76599;SDS011;65489;52.048;6.090;2023-04-25T12:39:29;1.15;;;0.50;;
76599;SDS011;65489;52.048;6.090;2023-04-25T12:41:55;1.63;;;0.60;;
76599;SDS011;65489;52.048;6.090;2023-04-25T12:44:20;1.83;;;0.80;;
76599;SDS011;65489;52.048;6.090;2023-04-25T12:46:46;1.40;;;0.50;;
76599;SDS011;65489;52.048;6.090;2023-04-25T12:49:12;1.00;;;0.52;;
76599;SDS011;65489;52.048;6.090;2023-04-25T12:51:38;1.17;;;0.52;;
76599;SDS011;65489;52.048;6.090;2023-04-25T12:54:04;1.88;;;0.50;;
76599;SDS011;65489;52.048;6.090;2023-04-25T12:56:30;2.22;;;0.80;;
76599;SDS011;65489;52.048;6.090;2023-04-25T12:58:56;1.52;;;0.75;;
76599;SDS011;65489;52.048;6.090;2023-04-25T13:01:22;1.23;;;0.52;;
76599;SDS011;65489;52.048;6.090;2023-04-25T13:03:48;1.27;;;0.50;;
76599;SDS011;65489;52.048;6.090;2023-04-25T13:06:17;1.60;;;0.50;;
76599;SDS011;65489;52.048;6.090;2023-04-25T13:08:43;1.77;;;0.50;;
76599;SDS011;65489;52.048;6.090;2023-04-25T13:11:09;2.45;;;0.68;;
76599;SDS011;65489;52.048;6.090;2023-04-25T13:13:35;2.13;;;0.70;;
76599;SDS011;65489;52.048;6.090;2023-04-25T13:16:01;1.50;;;0.55;;
76599;SDS011;65489;52.048;6.090;2023-04-25T13:18:30;1.90;;;0.57;;
76599;SDS011;65489;52.048;6.090;2023-04-25T13:20:56;1.30;;;0.50;;
76599;SDS011;65489;52.048;6.090;2023-04-25T13:23:22;1.65;;;0.60;;
76599;SDS011;65489;52.048;6.090;2023-04-25T13:25:48;2.00;;;0.60;;
76599;SDS011;65489;52.048;6.090;2023-04-25T13:28:13;1.73;;;0.60;;
76599;SDS011;65489;52.048;6.090;2023-04-25T13:30:39;1.90;;;0.60;;
76599;SDS011;65489;52.048;6.090;2023-04-25T13:33:05;2.17;;;0.50;;
76599;SDS011;65489;52.048;6.090;2023-04-25T13:35:32;1.15;;;0.60;;
76599;SDS011;65489;52.048;6.090;2023-04-25T13:37:59;2.10;;;0.50;;
76599;SDS011;65489;52.048;6.090;2023-04-25T13:40:24;1.10;;;0.52;;
76599;SDS011;65489;52.048;6.090;2023-04-25T13:42:50;1.58;;;0.47;;
76599;SDS011;65489;52.048;6.090;2023-04-25T13:45:16;1.73;;;0.50;;
76599;SDS011;65489;52.048;6.090;2023-04-25T13:47:41;1.30;;;0.40;;
76599;SDS011;65489;52.048;6.090;2023-04-25T13:50:07;1.50;;;0.50;;
76599;SDS011;65489;52.048;6.090;2023-04-25T13:52:33;2.15;;;0.50;;
76599;SDS011;65489;52.048;6.090;2023-04-25T13:54:58;1.63;;;0.60;;
76599;SDS011;65489;52.048;6.090;2023-04-25T13:57:24;1.02;;;0.40;;
76599;SDS011;65489;52.048;6.090;2023-04-25T13:59:50;2.47;;;0.50;;
76599;SDS011;65489;52.048;6.090;2023-04-25T14:02:16;1.25;;;0.50;;
76599;SDS011;65489;52.048;6.090;2023-04-25T14:04:41;2.58;;;0.40;;
76599;SDS011;65489;52.048;6.090;2023-04-25T14:07:07;1.45;;;0.50;;
76599;SDS011;65489;52.048;6.090;2023-04-25T14:09:33;0.95;;;0.43;;
76599;SDS011;65489;52.048;6.090;2023-04-25T14:11:59;1.65;;;0.40;;
76599;SDS011;65489;52.048;6.090;2023-04-25T14:14:25;2.08;;;0.65;;
76599;SDS011;65489;52.048;6.090;2023-04-25T14:16:51;1.02;;;0.52;;
76599;SDS011;65489;52.048;6.090;2023-04-25T14:19:19;1.38;;;0.57;;
76599;SDS011;65489;52.048;6.090;2023-04-25T14:21:46;2.00;;;0.32;;
76599;SDS011;65489;52.048;6.090;2023-04-25T14:24:11;0.93;;;0.40;;
76599;SDS011;65489;52.048;6.090;2023-04-25T14:26:38;0.70;;;0.47;;
76599;SDS011;65489;52.048;6.090;2023-04-25T14:29:04;0.60;;;0.32;;
76599;SDS011;65489;52.048;6.090;2023-04-25T14:31:33;1.92;;;0.35;;
76599;SDS011;65489;52.048;6.090;2023-04-25T14:34:00;0.80;;;0.30;;
76599;SDS011;65489;52.048;6.090;2023-04-25T14:36:27;1.48;;;0.50;;
76599;SDS011;65489;52.048;6.090;2023-04-25T14:38:53;1.25;;;0.30;;
76599;SDS011;65489;52.048;6.090;2023-04-25T14:41:18;0.70;;;0.40;;
76599;SDS011;65489;52.048;6.090;2023-04-25T14:43:44;0.77;;;0.30;;
76599;SDS011;65489;52.048;6.090;2023-04-25T14:46:10;1.00;;;0.35;;
76599;SDS011;65489;52.048;6.090;2023-04-25T14:48:36;0.68;;;0.30;;
76599;SDS011;65489;52.048;6.090;2023-04-25T14:51:01;0.82;;;0.38;;
76599;SDS011;65489;52.048;6.090;2023-04-25T14:53:27;1.35;;;0.50;;
76599;SDS011;65489;52.048;6.090;2023-04-25T14:55:52;1.33;;;0.45;;
76599;SDS011;65489;52.048;6.090;2023-04-25T14:58:18;1.02;;;0.55;;
76599;SDS011;65489;52.048;6.090;2023-04-25T15:00:45;1.63;;;0.35;;
76599;SDS011;65489;52.048;6.090;2023-04-25T15:03:11;1.98;;;0.90;;
76599;SDS011;65489;52.048;6.090;2023-04-25T15:05:38;1.98;;;0.47;;
76599;SDS011;65489;52.048;6.090;2023-04-25T15:08:04;1.23;;;0.50;;
76599;SDS011;65489;52.048;6.090;2023-04-25T15:10:29;2.67;;;0.32;;
76599;SDS011;65489;52.048;6.090;2023-04-25T15:12:55;1.55;;;0.40;;
76599;SDS011;65489;52.048;6.090;2023-04-25T15:15:20;1.02;;;0.55;;
76599;SDS011;65489;52.048;6.090;2023-04-25T15:17:46;1.10;;;0.50;;